createdAt,value
2023-04-16T00:01:47.417Z,44.60
2023-04-16T00:04:14.347Z,44.39
2023-04-16T00:06:41.192Z,44.41
2023-04-16T00:09:09.534Z,44.29
2023-04-16T00:11:36.535Z,44.37
2023-04-16T00:14:03.335Z,44.10
2023-04-16T00:16:30.348Z,44.21
2023-04-16T00:18:57.165Z,43.99
2023-04-16T00:21:24.000Z,44.27
2023-04-16T00:23:50.864Z,44.30
2023-04-16T00:26:19.016Z,44.38
2023-04-16T00:28:45.828Z,44.32
2023-04-16T00:31:12.885Z,44.45
2023-04-16T00:33:39.737Z,44.30
2023-04-16T00:36:06.735Z,44.26
2023-04-16T00:38:33.586Z,44.50
2023-04-16T00:41:00.374Z,44.06
2023-04-16T00:43:28.542Z,44.29
2023-04-16T00:45:56.646Z,44.00
2023-04-16T00:48:23.658Z,44.19
2023-04-16T00:50:50.489Z,43.97
2023-04-16T00:53:17.392Z,44.13
2023-04-16T00:55:44.263Z,43.88
2023-04-16T00:58:11.189Z,43.70
2023-04-16T01:03:35.098Z,44.34
2023-04-16T01:06:02.813Z,43.76
2023-04-16T01:08:29.674Z,44.05
2023-04-16T01:10:56.492Z,43.93
2023-04-16T01:13:23.303Z,43.90
2023-04-16T01:15:51.709Z,44.14
2023-04-16T01:18:19.533Z,44.23
2023-04-16T01:20:47.819Z,43.89
2023-04-16T01:23:14.657Z,44.16
2023-04-16T01:25:41.488Z,43.95
2023-04-16T01:28:08.278Z,44.03
2023-04-16T01:30:35.120Z,44.01
2023-04-16T01:33:02.097Z,43.80
2023-04-16T01:35:29.007Z,43.74
2023-04-16T01:37:57.184Z,43.76
2023-04-16T01:40:24.049Z,43.71
2023-04-16T01:42:50.847Z,43.55
2023-04-16T01:45:17.765Z,43.86
2023-04-16T01:47:44.691Z,43.69
2023-04-16T01:50:11.575Z,43.73
2023-04-16T01:52:38.406Z,43.47
2023-04-16T01:55:07.037Z,43.65
2023-04-16T01:57:33.878Z,43.54
2023-04-16T02:00:00.772Z,43.58
2023-04-16T02:02:27.887Z,43.77
2023-04-16T02:04:55.535Z,43.85
2023-04-16T02:07:22.364Z,43.93
2023-04-16T02:09:49.269Z,43.85
2023-04-16T02:12:17.658Z,43.64
2023-04-16T02:14:44.495Z,43.66
2023-04-16T02:17:11.321Z,43.76
2023-04-16T02:19:38.118Z,43.42
2023-04-16T02:22:04.904Z,43.56
2023-04-16T02:24:31.735Z,43.31
2023-04-16T02:26:58.637Z,43.41
2023-04-16T02:29:26.960Z,43.43
2023-04-16T02:31:53.860Z,43.30
2023-04-16T02:34:20.723Z,43.40
2023-04-16T02:36:47.532Z,43.18
2023-04-16T02:39:14.334Z,43.54
2023-04-16T02:41:41.176Z,43.34
2023-04-16T02:44:08.010Z,43.25
2023-04-16T02:46:36.197Z,43.39
2023-04-16T02:49:03.027Z,43.45
2023-04-16T02:51:29.815Z,43.49
2023-04-16T02:53:56.641Z,43.54
2023-04-16T02:56:23.558Z,43.50
2023-04-16T02:58:50.361Z,43.40
2023-04-16T03:01:17.219Z,43.52
2023-04-16T03:03:45.546Z,43.14
2023-04-16T03:06:12.378Z,42.95
2023-04-16T03:08:39.254Z,42.14
2023-04-16T03:11:06.088Z,41.71
2023-04-16T03:13:33.125Z,41.33
2023-04-16T03:16:00.200Z,41.76
2023-04-16T03:18:27.067Z,41.73
2023-04-16T03:20:55.229Z,41.55
2023-04-16T03:23:22.043Z,41.89
2023-04-16T03:25:48.834Z,41.66
2023-04-16T03:28:15.627Z,41.74
2023-04-16T03:30:42.494Z,41.91
2023-04-16T03:33:09.282Z,42.09
2023-04-16T03:35:36.097Z,42.27
2023-04-16T03:38:04.259Z,42.56
2023-04-16T03:40:31.046Z,42.67
2023-04-16T03:42:57.830Z,42.65
2023-04-16T03:45:24.773Z,42.46
2023-04-16T03:47:51.617Z,42.42
2023-04-16T03:50:18.631Z,42.51
2023-04-16T03:52:45.453Z,42.55
2023-04-16T03:55:13.745Z,42.43
2023-04-16T03:57:40.651Z,42.50
2023-04-16T04:00:07.948Z,42.41
2023-04-16T04:02:34.866Z,42.41
2023-04-16T04:05:01.931Z,42.44
2023-04-16T04:07:28.778Z,42.62
2023-04-16T04:09:55.558Z,42.61
2023-04-16T04:12:23.776Z,42.58
2023-04-16T04:14:50.649Z,42.24
2023-04-16T04:17:17.438Z,42.46
2023-04-16T04:19:54.273Z,42.62
2023-04-16T04:22:27.647Z,42.49
2023-04-16T04:24:54.631Z,42.81
2023-04-16T04:27:21.437Z,42.61
2023-04-16T04:29:49.648Z,42.82
2023-04-16T04:32:16.440Z,43.11
2023-04-16T04:34:43.246Z,43.10
2023-04-16T04:37:10.053Z,43.00
2023-04-16T04:39:36.836Z,43.12
2023-04-16T04:42:03.846Z,43.04
2023-04-16T04:44:30.678Z,42.92
2023-04-16T04:46:58.856Z,43.00
2023-04-16T04:49:25.660Z,42.86
2023-04-16T04:51:52.567Z,42.67
2023-04-16T04:54:19.356Z,42.84
2023-04-16T04:56:46.145Z,42.62
2023-04-16T04:59:13.000Z,42.86
2023-04-16T05:01:39.864Z,42.78
2023-04-16T05:04:08.100Z,42.63
2023-04-16T05:06:34.988Z,42.82
2023-04-16T05:09:01.786Z,42.55
2023-04-16T05:11:28.601Z,43.03
2023-04-16T05:13:55.445Z,43.04
2023-04-16T05:16:22.273Z,43.02
2023-04-16T05:18:49.103Z,43.00
2023-04-16T05:21:17.292Z,42.94
2023-04-16T05:23:44.112Z,43.00
2023-04-16T05:26:10.902Z,42.93
2023-04-16T05:28:37.757Z,42.75
2023-04-16T05:31:04.772Z,42.63
2023-04-16T05:33:31.634Z,42.64
2023-04-16T05:35:58.449Z,42.70
2023-04-16T05:38:26.592Z,42.63
2023-04-16T05:40:53.519Z,42.65
2023-04-16T05:43:20.321Z,42.77
2023-04-16T05:45:47.208Z,43.25
2023-04-16T05:48:14.008Z,43.54
2023-04-16T05:50:40.863Z,43.98
2023-04-16T05:53:08.993Z,43.64
2023-04-16T05:55:37.153Z,43.18
2023-04-16T05:58:04.360Z,43.54
2023-04-16T06:00:31.418Z,42.06
2023-04-16T06:02:58.549Z,41.29
2023-04-16T06:05:25.905Z,41.51
2023-04-16T06:07:52.778Z,41.78
2023-04-16T06:10:19.645Z,41.87
2023-04-16T06:12:47.868Z,41.80
2023-04-16T06:15:14.710Z,41.64
2023-04-16T06:17:41.658Z,41.24
2023-04-16T06:20:09.006Z,41.01
2023-04-16T06:22:35.858Z,40.68
2023-04-16T06:25:02.722Z,40.03
2023-04-16T06:27:29.617Z,39.50
2023-04-16T06:29:57.930Z,39.67
2023-04-16T06:32:24.915Z,39.84
2023-04-16T06:34:51.780Z,39.93
2023-04-16T06:37:18.649Z,39.87
2023-04-16T06:39:45.465Z,40.16
2023-04-16T06:42:12.424Z,40.54
2023-04-16T06:44:39.238Z,40.36
2023-04-16T06:47:07.768Z,40.61
2023-04-16T06:49:34.716Z,40.76
2023-04-16T06:52:02.764Z,40.85
2023-04-16T06:54:30.762Z,41.21
2023-04-16T06:56:57.594Z,41.27
2023-04-16T06:59:24.605Z,41.55
2023-04-16T07:01:51.774Z,41.45
2023-04-16T07:04:20.096Z,41.24
2023-04-16T07:06:46.916Z,41.16
2023-04-16T07:09:13.730Z,41.03
2023-04-16T07:11:40.914Z,41.02
2023-04-16T07:14:07.767Z,41.44
2023-04-16T07:16:34.662Z,41.60
2023-04-16T07:19:01.570Z,41.64
2023-04-16T07:21:29.804Z,41.39
2023-04-16T07:23:56.629Z,42.04
2023-04-16T07:26:23.614Z,42.52
2023-04-16T07:28:50.412Z,43.86
2023-04-16T07:31:17.395Z,42.82
2023-04-16T07:33:44.462Z,42.26
2023-04-16T07:36:11.268Z,42.46
2023-04-16T07:38:39.489Z,42.40
2023-04-16T07:41:06.630Z,42.08
2023-04-16T07:43:33.442Z,42.63
2023-04-16T07:46:00.261Z,42.27
2023-04-16T07:48:27.150Z,41.61
2023-04-16T07:50:54.073Z,41.50
2023-04-16T07:53:21.046Z,40.96
2023-04-16T07:55:49.219Z,40.84
2023-04-16T07:58:16.039Z,41.00
2023-04-16T08:00:42.987Z,41.01
2023-04-16T08:03:10.091Z,41.54
2023-04-16T08:05:37.105Z,41.67
2023-04-16T08:08:03.988Z,41.49
2023-04-16T08:10:30.856Z,41.68
2023-04-16T08:12:59.929Z,41.68
2023-04-16T08:15:26.883Z,41.41
2023-04-16T08:17:53.748Z,41.75
2023-04-16T08:20:20.634Z,41.80
2023-04-16T08:22:47.866Z,42.47
2023-04-16T08:25:14.863Z,42.25
2023-04-16T08:27:41.688Z,42.60
2023-04-16T08:30:10.153Z,42.64
2023-04-16T08:32:36.980Z,42.36
2023-04-16T08:35:04.021Z,42.31
2023-04-16T08:37:30.853Z,42.29
2023-04-16T08:39:57.665Z,42.12
2023-04-16T08:42:28.984Z,42.61
2023-04-16T08:45:03.166Z,42.12
2023-04-16T08:47:34.333Z,42.61
2023-04-16T08:50:02.960Z,42.17
2023-04-16T08:52:30.603Z,42.40
2023-04-16T08:55:01.278Z,42.63
2023-04-16T08:57:30.717Z,42.48
2023-04-16T08:59:58.023Z,42.38
2023-04-16T09:02:25.997Z,42.28
2023-04-16T09:04:55.530Z,42.37
2023-04-16T09:07:23.913Z,42.32
2023-04-16T09:09:53.016Z,42.38
2023-04-16T09:12:23.250Z,42.62
2023-04-16T09:14:50.048Z,42.10
2023-04-16T09:17:16.972Z,42.40
2023-04-16T09:19:43.845Z,42.28
2023-04-16T09:22:12.138Z,42.33
2023-04-16T09:24:38.952Z,42.56
2023-04-16T09:27:07.726Z,42.18
2023-04-16T09:29:34.606Z,41.83
2023-04-16T09:32:02.316Z,43.77
2023-04-16T09:34:29.215Z,43.89
2023-04-16T09:36:55.999Z,43.83
2023-04-16T09:39:24.350Z,47.04
2023-04-16T09:41:53.050Z,50.46
2023-04-16T09:44:19.899Z,50.18
2023-04-16T09:46:46.692Z,46.08
2023-04-16T09:49:14.568Z,45.82
2023-04-16T09:51:41.624Z,45.82
2023-04-16T09:54:08.502Z,45.45
2023-04-16T09:56:41.291Z,45.42
2023-04-16T09:59:08.783Z,44.75
2023-04-16T10:01:36.385Z,44.38
2023-04-16T10:04:06.404Z,44.24
2023-04-16T10:06:33.213Z,44.51
2023-04-16T10:09:00.017Z,43.97
2023-04-16T10:11:26.836Z,43.94
2023-04-16T10:13:54.996Z,43.68
2023-04-16T10:16:22.389Z,43.49
2023-04-16T10:18:49.271Z,43.22
2023-04-16T10:21:16.433Z,43.42
2023-04-16T10:23:43.736Z,43.36
2023-04-16T10:26:10.768Z,43.22
2023-04-16T10:28:37.606Z,42.88
2023-04-16T10:31:07.525Z,42.90
2023-04-16T10:33:35.387Z,42.79
2023-04-16T10:36:11.620Z,42.64
2023-04-16T10:38:39.676Z,42.71
2023-04-16T10:41:07.147Z,42.64
2023-04-16T10:43:38.459Z,42.84
2023-04-16T10:46:23.106Z,42.70
2023-04-16T10:48:53.172Z,42.76
2023-04-16T10:51:24.540Z,42.95
2023-04-16T10:53:51.436Z,42.91
2023-04-16T10:56:22.909Z,42.70
2023-04-16T10:58:49.785Z,42.69
2023-04-16T11:01:16.639Z,42.63
2023-04-16T11:03:44.207Z,42.52
2023-04-16T11:06:16.239Z,42.35
2023-04-16T11:08:54.007Z,42.17
2023-04-16T11:11:22.065Z,42.26
2023-04-16T11:13:48.872Z,42.25
2023-04-16T11:16:16.329Z,42.21
2023-04-16T11:18:51.007Z,42.13
2023-04-16T11:21:20.084Z,41.92
2023-04-16T11:23:47.479Z,42.05
2023-04-16T11:26:21.260Z,41.95
2023-04-16T11:28:48.080Z,41.80
2023-04-16T11:31:14.917Z,41.96
2023-04-16T11:33:42.423Z,42.19
2023-04-16T11:36:09.329Z,42.05
2023-04-16T11:38:38.061Z,42.17
2023-04-16T11:41:04.866Z,41.98
2023-04-16T11:43:31.773Z,42.06
2023-04-16T11:45:59.310Z,41.78
2023-04-16T11:48:26.316Z,41.70
2023-04-16T11:50:56.445Z,41.62
2023-04-16T11:53:23.367Z,41.69
2023-04-16T11:55:51.635Z,41.48
2023-04-16T11:58:18.506Z,41.71
2023-04-16T12:00:45.558Z,41.58
2023-04-16T12:03:12.600Z,41.52
2023-04-16T12:05:40.444Z,41.57
2023-04-16T12:08:07.876Z,41.31
2023-04-16T12:10:35.773Z,41.33
2023-04-16T12:13:13.860Z,41.40
2023-04-16T12:15:44.014Z,41.55
2023-04-16T12:18:10.882Z,41.28
2023-04-16T12:20:39.648Z,41.62
2023-04-16T12:23:06.483Z,41.43
2023-04-16T12:25:33.354Z,41.68
2023-04-16T12:28:00.408Z,41.70
2023-04-16T12:30:28.617Z,41.69
2023-04-16T12:33:10.412Z,41.26
2023-04-16T12:35:37.369Z,41.40
2023-04-16T12:38:04.207Z,41.10
2023-04-16T12:40:31.284Z,41.14
2023-04-16T12:42:58.128Z,41.06
2023-04-16T12:45:25.440Z,41.13
2023-04-16T12:47:53.861Z,41.22
2023-04-16T12:50:20.664Z,41.00
2023-04-16T12:52:47.643Z,41.16
2023-04-16T12:55:14.507Z,41.18
2023-04-16T12:57:41.319Z,41.09
2023-04-16T13:00:08.606Z,40.87
2023-04-16T13:02:35.571Z,41.16
2023-04-16T13:05:03.979Z,41.21
2023-04-16T13:07:30.790Z,41.09
2023-04-16T13:09:57.676Z,41.23
2023-04-16T13:12:24.567Z,41.38
2023-04-16T13:14:51.362Z,41.07
2023-04-16T13:17:18.236Z,41.18
2023-04-16T13:19:45.019Z,41.05
2023-04-16T13:22:13.181Z,41.02
2023-04-16T13:24:39.991Z,40.87
2023-04-16T13:27:06.823Z,40.92
2023-04-16T13:29:33.645Z,40.86
2023-04-16T13:32:00.526Z,40.73
2023-04-16T13:34:27.360Z,40.60
2023-04-16T13:36:54.224Z,40.77
2023-04-16T13:39:22.507Z,40.64
2023-04-16T13:41:49.333Z,40.46
2023-04-16T13:44:16.152Z,40.45
2023-04-16T13:46:43.046Z,40.46
2023-04-16T13:49:10.129Z,40.57
2023-04-16T13:51:36.973Z,40.66
2023-04-16T13:54:03.985Z,40.47
2023-04-16T13:56:32.143Z,40.75
2023-04-16T13:58:58.950Z,40.65
2023-04-16T14:01:25.855Z,40.99
2023-04-16T14:03:52.807Z,40.72
2023-04-16T14:06:19.730Z,40.87
2023-04-16T14:08:46.601Z,40.89
2023-04-16T14:11:13.400Z,40.79
2023-04-16T14:13:41.795Z,40.79
2023-04-16T14:16:08.640Z,40.56
2023-04-16T14:18:35.474Z,40.74
2023-04-16T14:21:02.326Z,40.67
2023-04-16T14:23:29.192Z,40.69
2023-04-16T14:25:56.006Z,40.51
2023-04-16T14:28:22.818Z,40.72
2023-04-16T14:30:51.011Z,40.55
2023-04-16T14:33:17.817Z,40.54
2023-04-16T14:35:44.637Z,40.79
2023-04-16T14:38:11.563Z,40.52
2023-04-16T14:40:38.386Z,40.26
2023-04-16T14:43:05.209Z,40.04
2023-04-16T14:45:32.064Z,40.31
2023-04-16T14:48:00.252Z,40.23
2023-04-16T14:50:27.551Z,40.37
2023-04-16T14:52:54.506Z,40.29
2023-04-16T14:55:21.501Z,40.35
2023-04-16T14:57:48.320Z,40.25
2023-04-16T15:00:15.542Z,40.02
2023-04-16T15:02:42.516Z,40.29
2023-04-16T15:05:10.895Z,40.09
2023-04-16T15:07:37.757Z,40.29
2023-04-16T15:10:04.979Z,40.17
2023-04-16T15:12:31.796Z,40.27
2023-04-16T15:14:58.647Z,40.16
2023-04-16T15:17:25.835Z,40.31
2023-04-16T15:19:52.714Z,40.11
2023-04-16T15:22:20.908Z,40.33
2023-04-16T15:24:47.714Z,40.18
2023-04-16T15:27:14.532Z,40.04
2023-04-16T15:29:41.361Z,40.18
2023-04-16T15:32:08.188Z,40.23
2023-04-16T15:34:34.993Z,40.20
2023-04-16T15:37:02.018Z,40.44
2023-04-16T15:39:30.848Z,40.96
2023-04-16T15:42:01.261Z,40.10
2023-04-16T15:44:29.628Z,40.07
2023-04-16T15:46:56.476Z,40.17
2023-04-16T15:49:23.292Z,39.88
2023-04-16T15:51:50.614Z,39.91
2023-04-16T15:54:17.462Z,40.31
2023-04-16T15:56:45.707Z,39.72
2023-04-16T15:59:12.877Z,39.25
2023-04-16T16:01:39.820Z,38.82
2023-04-16T16:04:06.857Z,37.91
2023-04-16T16:06:33.999Z,37.79
2023-04-16T16:09:00.883Z,37.47
2023-04-16T16:11:27.704Z,36.98
2023-04-16T16:13:55.884Z,37.16
2023-04-16T16:16:22.718Z,37.21
2023-04-16T16:18:49.592Z,36.79
2023-04-16T16:21:16.435Z,37.04
2023-04-16T16:23:43.241Z,36.60
2023-04-16T16:26:10.044Z,36.65
2023-04-16T16:28:36.870Z,36.95
2023-04-16T16:31:05.392Z,36.69
2023-04-16T16:33:32.539Z,36.90
2023-04-16T16:35:59.370Z,36.76
2023-04-16T16:38:26.212Z,36.71
2023-04-16T16:40:52.991Z,36.65
2023-04-16T16:43:19.903Z,36.72
2023-04-16T16:45:46.768Z,36.64
2023-04-16T16:48:14.922Z,36.74
2023-04-16T16:50:41.777Z,36.98
2023-04-16T16:53:08.620Z,36.91
2023-04-16T16:55:35.431Z,37.04
2023-04-16T16:58:02.814Z,37.27
2023-04-16T17:00:29.673Z,36.99
2023-04-16T17:02:56.625Z,37.22
2023-04-16T17:05:24.974Z,37.29
2023-04-16T17:07:51.827Z,37.04
2023-04-16T17:10:18.673Z,37.23
2023-04-16T17:12:45.603Z,37.16
2023-04-16T17:15:12.399Z,37.23
2023-04-16T17:17:39.217Z,37.04
2023-04-16T17:20:06.598Z,36.95
2023-04-16T17:22:34.807Z,37.08
2023-04-16T17:25:01.648Z,37.04
2023-04-16T17:27:28.506Z,36.79
2023-04-16T17:29:55.296Z,36.96
2023-04-16T17:32:22.174Z,36.74
2023-04-16T17:34:49.246Z,37.00
2023-04-16T17:37:16.102Z,36.87
2023-04-16T17:39:44.254Z,36.90
2023-04-16T17:42:11.100Z,37.00
2023-04-16T17:44:37.912Z,36.96
2023-04-16T17:47:05.144Z,37.12
2023-04-16T17:49:31.970Z,36.96
2023-04-16T17:51:58.773Z,36.91
2023-04-16T17:54:25.568Z,37.05
2023-04-16T17:56:53.945Z,37.21
2023-04-16T17:59:21.593Z,37.08
2023-04-16T18:01:48.491Z,36.96
2023-04-16T18:04:15.730Z,36.53
2023-04-16T18:06:42.953Z,36.51
2023-04-16T18:09:09.776Z,36.55
2023-04-16T18:11:36.617Z,36.55
2023-04-16T18:14:04.788Z,36.58
2023-04-16T18:16:31.619Z,36.82
2023-04-16T18:18:58.464Z,36.96
2023-04-16T18:21:25.269Z,36.91
2023-04-16T18:23:52.048Z,37.01
2023-04-16T18:26:21.125Z,37.18
2023-04-16T18:28:49.645Z,37.06
2023-04-16T18:31:20.897Z,37.27
2023-04-16T18:33:56.840Z,37.44
2023-04-16T18:36:25.025Z,37.70
2023-04-16T18:39:01.127Z,37.54
2023-04-16T18:41:29.223Z,37.68
2023-04-16T18:43:56.232Z,37.60
2023-04-16T18:46:24.624Z,37.85
2023-04-16T18:48:51.450Z,37.58
2023-04-16T18:51:18.292Z,37.37
2023-04-16T18:53:45.104Z,37.80
2023-04-16T18:56:11.932Z,37.99
2023-04-16T18:58:38.974Z,38.01
2023-04-16T19:01:05.883Z,37.97
2023-04-16T19:03:34.180Z,37.98
2023-04-16T19:06:01.283Z,37.89
2023-04-16T19:08:28.154Z,38.02
2023-04-16T19:10:54.985Z,38.04
2023-04-16T19:13:21.928Z,38.14
2023-04-16T19:15:48.788Z,38.14
2023-04-16T19:18:15.668Z,37.94
2023-04-16T19:20:43.854Z,37.92
2023-04-16T19:23:10.777Z,37.93
2023-04-16T19:25:37.647Z,38.27
2023-04-16T19:28:04.656Z,38.04
2023-04-16T19:30:31.615Z,38.17
2023-04-16T19:32:58.514Z,38.24
2023-04-16T19:35:25.735Z,38.42
2023-04-16T19:37:53.900Z,38.44
2023-04-16T19:40:20.690Z,38.79
2023-04-16T19:42:47.562Z,38.82
2023-04-16T19:45:14.434Z,38.73
2023-04-16T19:47:41.268Z,38.78
2023-04-16T19:50:08.504Z,38.59
2023-04-16T19:52:35.325Z,38.60
2023-04-16T19:55:03.642Z,38.58
2023-04-16T19:57:30.511Z,38.55
2023-04-16T19:59:57.303Z,38.50
2023-04-16T20:02:24.277Z,38.52
2023-04-16T20:04:51.593Z,38.72
2023-04-16T20:07:18.470Z,38.40
2023-04-16T20:09:45.314Z,38.50
2023-04-16T20:12:13.512Z,38.74
2023-04-16T20:14:40.285Z,39.24
2023-04-16T20:17:07.178Z,40.18
2023-04-16T20:19:34.211Z,40.67
2023-04-16T20:22:00.997Z,40.76
2023-04-16T20:24:27.791Z,41.15
2023-04-16T20:26:54.724Z,41.02
2023-04-16T20:29:22.873Z,41.12
2023-04-16T20:31:49.671Z,41.14
2023-04-16T20:34:16.496Z,41.18
2023-04-16T20:36:43.297Z,41.27
2023-04-16T20:39:10.205Z,41.24
2023-04-16T20:41:37.357Z,41.44
2023-04-16T20:44:04.354Z,41.48
2023-04-16T20:46:32.594Z,41.66
2023-04-16T20:48:59.477Z,41.82
2023-04-16T20:51:26.351Z,41.89
2023-04-16T20:53:53.285Z,41.90
2023-04-16T20:56:20.142Z,42.18
2023-04-16T20:58:46.937Z,42.00
2023-04-16T21:01:13.755Z,41.75
2023-04-16T21:03:42.199Z,42.21
2023-04-16T21:06:09.211Z,42.25
2023-04-16T21:08:36.029Z,42.36
2023-04-16T21:11:03.008Z,42.35
2023-04-16T21:13:29.844Z,42.59
2023-04-16T21:15:56.704Z,42.27
2023-04-16T21:18:23.593Z,42.29
2023-04-16T21:20:51.743Z,42.24
2023-04-16T21:23:18.553Z,42.55
2023-04-16T21:25:45.445Z,42.31
2023-04-16T21:28:12.247Z,42.38
2023-04-16T21:30:39.037Z,42.26
2023-04-16T21:33:06.321Z,41.91
2023-04-16T21:35:33.392Z,42.50
2023-04-16T21:38:01.569Z,42.41
2023-04-16T21:40:28.393Z,42.39
2023-04-16T21:42:55.216Z,42.58
2023-04-16T21:45:22.023Z,42.74
2023-04-16T21:47:48.950Z,42.87
2023-04-16T21:50:15.781Z,42.87
2023-04-16T21:52:42.847Z,42.81
2023-04-16T21:55:10.996Z,43.09
2023-04-16T21:57:39.601Z,43.18
2023-04-16T22:00:07.525Z,43.18
2023-04-16T22:02:34.482Z,43.24
2023-04-16T22:05:01.509Z,43.00
2023-04-16T22:07:28.326Z,43.01
2023-04-16T22:09:55.136Z,43.13
2023-04-16T22:12:23.335Z,42.99
2023-04-16T22:17:22.644Z,43.02
2023-04-16T22:19:49.727Z,43.16
2023-04-16T22:22:16.566Z,42.86
2023-04-16T22:24:43.381Z,43.11
2023-04-16T22:27:10.171Z,43.17
2023-04-16T22:29:38.352Z,43.08
2023-04-16T22:32:05.491Z,43.18
2023-04-16T22:34:32.308Z,43.08
2023-04-16T22:36:59.131Z,43.33
2023-04-16T22:39:25.928Z,43.33
2023-04-16T22:41:52.714Z,43.12
2023-04-16T22:44:19.556Z,43.16
2023-04-16T22:46:47.748Z,43.44
2023-04-16T22:49:14.554Z,43.37
2023-04-16T22:51:41.425Z,43.21
2023-04-16T22:54:08.317Z,43.45
2023-04-16T22:56:35.198Z,43.52
2023-04-16T22:59:02.037Z,43.50
2023-04-16T23:01:28.985Z,43.38
2023-04-16T23:03:57.212Z,43.50
2023-04-16T23:06:24.252Z,43.26
2023-04-16T23:08:51.051Z,43.16
2023-04-16T23:11:17.864Z,43.10
2023-04-16T23:13:44.857Z,43.07
2023-04-16T23:16:11.769Z,43.00
2023-04-16T23:18:38.596Z,43.13
2023-04-16T23:21:06.878Z,42.90
2023-04-16T23:23:33.674Z,43.22
2023-04-16T23:26:00.483Z,43.09
2023-04-16T23:28:27.366Z,42.98
2023-04-16T23:30:54.333Z,43.01
2023-04-16T23:33:21.151Z,42.99
2023-04-16T23:35:47.969Z,43.06
2023-04-16T23:38:16.124Z,43.11
2023-04-16T23:40:42.912Z,43.11
2023-04-16T23:43:09.726Z,43.26
2023-04-16T23:45:36.631Z,43.10
2023-04-16T23:48:03.635Z,42.91
2023-04-16T23:50:30.502Z,43.29
2023-04-16T23:52:57.301Z,43.09
2023-04-16T23:55:25.500Z,42.96
2023-04-16T23:57:52.478Z,42.80
